sensor_id;sensor_type;location;lat;lon;timestamp;temperature;humidity
51950;DHT22;37974;53.218;6.640;2024-02-15T00:00:44;10.60;99.90
51950;DHT22;37974;53.218;6.640;2024-02-15T00:03:10;10.70;99.90
51950;DHT22;37974;53.218;6.640;2024-02-15T00:05:39;10.60;99.90
51950;DHT22;37974;53.218;6.640;2024-02-15T00:08:04;10.70;99.90
51950;DHT22;37974;53.218;6.640;2024-02-15T00:10:31;10.70;99.90
51950;DHT22;37974;53.218;6.640;2024-02-15T00:12:58;10.60;99.90
51950;DHT22;37974;53.218;6.640;2024-02-15T00:15:24;10.60;99.90
51950;DHT22;37974;53.218;6.640;2024-02-15T00:17:50;10.80;99.90
51950;DHT22;37974;53.218;6.640;2024-02-15T00:20:17;10.80;99.90
51950;DHT22;37974;53.218;6.640;2024-02-15T00:22:43;10.60;99.90
51950;DHT22;37974;53.218;6.640;2024-02-15T00:25:09;10.80;99.90
51950;DHT22;37974;53.218;6.640;2024-02-15T00:27:37;10.60;99.90
51950;DHT22;37974;53.218;6.640;2024-02-15T00:30:03;10.70;99.90
51950;DHT22;37974;53.218;6.640;2024-02-15T00:32:34;10.60;99.90
51950;DHT22;37974;53.218;6.640;2024-02-15T00:35:00;10.70;99.90
51950;DHT22;37974;53.218;6.640;2024-02-15T00:37:25;10.60;99.90
51950;DHT22;37974;53.218;6.640;2024-02-15T00:39:51;10.70;99.90
51950;DHT22;37974;53.218;6.640;2024-02-15T00:42:17;10.60;99.90
51950;DHT22;37974;53.218;6.640;2024-02-15T00:44:42;10.60;99.90
51950;DHT22;37974;53.218;6.640;2024-02-15T00:47:09;10.80;99.90
51950;DHT22;37974;53.218;6.640;2024-02-15T00:49:37;10.60;99.90
51950;DHT22;37974;53.218;6.640;2024-02-15T00:52:02;10.70;99.90
51950;DHT22;37974;53.218;6.640;2024-02-15T00:54:28;10.80;99.90
51950;DHT22;37974;53.218;6.640;2024-02-15T00:56:54;10.80;99.90
51950;DHT22;37974;53.218;6.640;2024-02-15T00:59:19;10.80;99.90
51950;DHT22;37974;53.218;6.640;2024-02-15T01:01:45;10.70;99.90
51950;DHT22;37974;53.218;6.640;2024-02-15T01:04:13;10.80;99.90
51950;DHT22;37974;53.218;6.640;2024-02-15T01:06:39;10.60;99.90
51950;DHT22;37974;53.218;6.640;2024-02-15T01:09:05;10.60;99.90
51950;DHT22;37974;53.218;6.640;2024-02-15T01:11:31;10.60;99.90
51950;DHT22;37974;53.218;6.640;2024-02-15T01:13:58;10.70;99.90
51950;DHT22;37974;53.218;6.640;2024-02-15T01:16:24;10.80;99.90
51950;DHT22;37974;53.218;6.640;2024-02-15T01:18:50;10.60;99.90
51950;DHT22;37974;53.218;6.640;2024-02-15T01:21:16;10.70;99.90
51950;DHT22;37974;53.218;6.640;2024-02-15T01:23:42;10.80;99.90
51950;DHT22;37974;53.218;6.640;2024-02-15T01:26:09;10.70;99.90
51950;DHT22;37974;53.218;6.640;2024-02-15T01:28:37;10.80;99.90
51950;DHT22;37974;53.218;6.640;2024-02-15T01:31:03;10.80;99.90
51950;DHT22;37974;53.218;6.640;2024-02-15T01:33:29;10.70;99.90
51950;DHT22;37974;53.218;6.640;2024-02-15T01:35:54;10.60;99.90
51950;DHT22;37974;53.218;6.640;2024-02-15T01:38:21;10.60;99.90
51950;DHT22;37974;53.218;6.640;2024-02-15T01:40:47;10.70;99.90
51950;DHT22;37974;53.218;6.640;2024-02-15T01:43:14;10.70;99.90
51950;DHT22;37974;53.218;6.640;2024-02-15T01:45:40;10.70;99.90
51950;DHT22;37974;53.218;6.640;2024-02-15T01:48:06;10.80;99.90
51950;DHT22;37974;53.218;6.640;2024-02-15T01:50:33;10.70;99.90
51950;DHT22;37974;53.218;6.640;2024-02-15T01:53:01;10.70;99.90
51950;DHT22;37974;53.218;6.640;2024-02-15T01:55:29;10.70;99.90
51950;DHT22;37974;53.218;6.640;2024-02-15T01:57:55;10.80;99.90
51950;DHT22;37974;53.218;6.640;2024-02-15T02:00:21;10.60;99.90
51950;DHT22;37974;53.218;6.640;2024-02-15T02:02:48;10.80;99.90
51950;DHT22;37974;53.218;6.640;2024-02-15T02:05:14;10.60;99.90
51950;DHT22;37974;53.218;6.640;2024-02-15T02:07:40;10.80;99.90
51950;DHT22;37974;53.218;6.640;2024-02-15T02:10:06;10.70;99.90
51950;DHT22;37974;53.218;6.640;2024-02-15T02:12:32;10.80;99.90
51950;DHT22;37974;53.218;6.640;2024-02-15T02:14:58;10.80;99.90
51950;DHT22;37974;53.218;6.640;2024-02-15T02:17:24;10.70;99.90
51950;DHT22;37974;53.218;6.640;2024-02-15T02:19:50;10.70;99.90
51950;DHT22;37974;53.218;6.640;2024-02-15T02:22:16;10.60;99.90
51950;DHT22;37974;53.218;6.640;2024-02-15T02:27:26;10.70;99.90
51950;DHT22;37974;53.218;6.640;2024-02-15T02:29:52;10.70;99.90
51950;DHT22;37974;53.218;6.640;2024-02-15T02:32:18;10.70;99.90
51950;DHT22;37974;53.218;6.640;2024-02-15T02:34:44;10.70;99.90
51950;DHT22;37974;53.218;6.640;2024-02-15T02:37:10;10.90;99.90
51950;DHT22;37974;53.218;6.640;2024-02-15T02:39:35;10.80;99.90
51950;DHT22;37974;53.218;6.640;2024-02-15T02:42:01;10.80;99.90
51950;DHT22;37974;53.218;6.640;2024-02-15T02:44:27;10.70;99.90
51950;DHT22;37974;53.218;6.640;2024-02-15T02:46:52;10.90;99.90
51950;DHT22;37974;53.218;6.640;2024-02-15T02:49:18;10.90;99.90
51950;DHT22;37974;53.218;6.640;2024-02-15T02:51:44;10.70;99.90
51950;DHT22;37974;53.218;6.640;2024-02-15T02:54:10;10.90;99.90
51950;DHT22;37974;53.218;6.640;2024-02-15T02:56:36;10.70;99.90
51950;DHT22;37974;53.218;6.640;2024-02-15T02:59:02;10.70;99.90
51950;DHT22;37974;53.218;6.640;2024-02-15T03:01:29;10.70;99.90
51950;DHT22;37974;53.218;6.640;2024-02-15T03:03:56;10.90;99.90
51950;DHT22;37974;53.218;6.640;2024-02-15T03:06:22;10.70;99.90
51950;DHT22;37974;53.218;6.640;2024-02-15T03:08:50;10.90;99.90
51950;DHT22;37974;53.218;6.640;2024-02-15T03:11:20;10.70;99.90
51950;DHT22;37974;53.218;6.640;2024-02-15T03:13:46;10.90;99.90
51950;DHT22;37974;53.218;6.640;2024-02-15T03:16:13;10.80;99.90
51950;DHT22;37974;53.218;6.640;2024-02-15T03:18:39;10.90;99.90
51950;DHT22;37974;53.218;6.640;2024-02-15T03:21:07;10.70;99.90
51950;DHT22;37974;53.218;6.640;2024-02-15T03:23:34;10.70;99.90
51950;DHT22;37974;53.218;6.640;2024-02-15T03:26:02;10.90;99.90
51950;DHT22;37974;53.218;6.640;2024-02-15T03:28:29;10.90;99.90
51950;DHT22;37974;53.218;6.640;2024-02-15T03:30:55;10.90;99.90
51950;DHT22;37974;53.218;6.640;2024-02-15T03:33:21;10.90;99.90
51950;DHT22;37974;53.218;6.640;2024-02-15T03:35:51;10.90;99.90
51950;DHT22;37974;53.218;6.640;2024-02-15T03:38:17;11.00;99.90
51950;DHT22;37974;53.218;6.640;2024-02-15T03:40:43;10.90;99.90
51950;DHT22;37974;53.218;6.640;2024-02-15T03:43:09;10.90;99.90
51950;DHT22;37974;53.218;6.640;2024-02-15T03:45:34;10.80;99.90
51950;DHT22;37974;53.218;6.640;2024-02-15T03:48:00;10.90;99.90
51950;DHT22;37974;53.218;6.640;2024-02-15T03:50:26;10.80;99.90
51950;DHT22;37974;53.218;6.640;2024-02-15T03:52:51;10.80;99.90
51950;DHT22;37974;53.218;6.640;2024-02-15T03:55:18;11.00;99.90
51950;DHT22;37974;53.218;6.640;2024-02-15T03:57:43;10.90;99.90
51950;DHT22;37974;53.218;6.640;2024-02-15T04:00:10;10.90;99.90
51950;DHT22;37974;53.218;6.640;2024-02-15T04:02:37;10.90;99.90
51950;DHT22;37974;53.218;6.640;2024-02-15T04:05:03;10.80;99.90
51950;DHT22;37974;53.218;6.640;2024-02-15T04:07:30;11.00;99.90
51950;DHT22;37974;53.218;6.640;2024-02-15T04:09:56;11.00;99.90
51950;DHT22;37974;53.218;6.640;2024-02-15T04:12:22;11.00;99.90
51950;DHT22;37974;53.218;6.640;2024-02-15T04:14:48;11.00;99.90
51950;DHT22;37974;53.218;6.640;2024-02-15T04:17:14;11.00;99.90
51950;DHT22;37974;53.218;6.640;2024-02-15T04:19:45;11.00;99.90
51950;DHT22;37974;53.218;6.640;2024-02-15T04:22:13;11.00;99.90
51950;DHT22;37974;53.218;6.640;2024-02-15T04:24:42;11.00;99.90
51950;DHT22;37974;53.218;6.640;2024-02-15T04:27:09;10.90;99.90
51950;DHT22;37974;53.218;6.640;2024-02-15T04:29:37;11.10;99.90
51950;DHT22;37974;53.218;6.640;2024-02-15T04:32:06;10.80;99.90
51950;DHT22;37974;53.218;6.640;2024-02-15T04:34:36;10.80;99.90
51950;DHT22;37974;53.218;6.640;2024-02-15T04:37:02;11.00;99.90
51950;DHT22;37974;53.218;6.640;2024-02-15T04:39:32;11.10;99.90
51950;DHT22;37974;53.218;6.640;2024-02-15T04:41:58;10.90;99.90
51950;DHT22;37974;53.218;6.640;2024-02-15T04:44:24;11.10;99.90
51950;DHT22;37974;53.218;6.640;2024-02-15T04:46:53;11.10;99.90
51950;DHT22;37974;53.218;6.640;2024-02-15T04:49:19;11.10;99.90
51950;DHT22;37974;53.218;6.640;2024-02-15T04:51:45;11.10;99.90
51950;DHT22;37974;53.218;6.640;2024-02-15T04:54:13;10.90;99.90
51950;DHT22;37974;53.218;6.640;2024-02-15T04:56:40;10.90;99.90
51950;DHT22;37974;53.218;6.640;2024-02-15T04:59:07;11.20;99.90
51950;DHT22;37974;53.218;6.640;2024-02-15T05:01:34;11.20;99.90
51950;DHT22;37974;53.218;6.640;2024-02-15T05:04:01;11.00;99.90
51950;DHT22;37974;53.218;6.640;2024-02-15T05:06:33;11.10;99.90
51950;DHT22;37974;53.218;6.640;2024-02-15T05:08:59;10.90;99.90
51950;DHT22;37974;53.218;6.640;2024-02-15T05:11:26;11.20;99.90
51950;DHT22;37974;53.218;6.640;2024-02-15T05:13:52;11.20;99.90
51950;DHT22;37974;53.218;6.640;2024-02-15T05:16:18;11.00;99.90
51950;DHT22;37974;53.218;6.640;2024-02-15T05:18:44;11.20;99.90
51950;DHT22;37974;53.218;6.640;2024-02-15T05:21:11;11.10;99.90
51950;DHT22;37974;53.218;6.640;2024-02-15T05:23:38;11.10;99.90
51950;DHT22;37974;53.218;6.640;2024-02-15T05:26:06;11.20;99.90
51950;DHT22;37974;53.218;6.640;2024-02-15T05:28:32;11.20;99.90
51950;DHT22;37974;53.218;6.640;2024-02-15T05:31:17;11.00;99.90
51950;DHT22;37974;53.218;6.640;2024-02-15T05:36:13;11.10;99.90
51950;DHT22;37974;53.218;6.640;2024-02-15T05:38:40;11.00;99.90
51950;DHT22;37974;53.218;6.640;2024-02-15T05:41:06;11.10;99.90
51950;DHT22;37974;53.218;6.640;2024-02-15T05:43:34;11.20;99.90
51950;DHT22;37974;53.218;6.640;2024-02-15T05:46:02;11.20;99.90
51950;DHT22;37974;53.218;6.640;2024-02-15T05:48:28;11.20;99.90
51950;DHT22;37974;53.218;6.640;2024-02-15T05:50:55;11.00;99.90
51950;DHT22;37974;53.218;6.640;2024-02-15T05:53:21;11.30;99.90
51950;DHT22;37974;53.218;6.640;2024-02-15T05:55:47;11.30;99.90
51950;DHT22;37974;53.218;6.640;2024-02-15T05:58:15;11.30;99.90
51950;DHT22;37974;53.218;6.640;2024-02-15T06:00:42;11.30;99.90
51950;DHT22;37974;53.218;6.640;2024-02-15T06:03:10;11.10;99.90
51950;DHT22;37974;53.218;6.640;2024-02-15T06:05:37;11.30;99.90
51950;DHT22;37974;53.218;6.640;2024-02-15T06:08:04;11.20;99.90
51950;DHT22;37974;53.218;6.640;2024-02-15T06:10:29;11.30;99.90
51950;DHT22;37974;53.218;6.640;2024-02-15T06:12:56;11.40;99.90
51950;DHT22;37974;53.218;6.640;2024-02-15T06:15:23;11.30;99.90
51950;DHT22;37974;53.218;6.640;2024-02-15T06:17:49;11.40;99.90
51950;DHT22;37974;53.218;6.640;2024-02-15T06:20:15;11.40;99.90
51950;DHT22;37974;53.218;6.640;2024-02-15T06:22:43;11.30;99.90
51950;DHT22;37974;53.218;6.640;2024-02-15T06:25:10;11.40;99.90
51950;DHT22;37974;53.218;6.640;2024-02-15T06:27:37;11.20;99.90
51950;DHT22;37974;53.218;6.640;2024-02-15T06:30:08;11.30;99.90
51950;DHT22;37974;53.218;6.640;2024-02-15T06:32:52;11.20;99.90
51950;DHT22;37974;53.218;6.640;2024-02-15T06:35:37;11.40;99.90
51950;DHT22;37974;53.218;6.640;2024-02-15T06:38:21;11.30;99.90
51950;DHT22;37974;53.218;6.640;2024-02-15T06:41:06;11.30;99.90
51950;DHT22;37974;53.218;6.640;2024-02-15T06:43:31;11.30;99.90
51950;DHT22;37974;53.218;6.640;2024-02-15T06:45:58;11.40;99.90
51950;DHT22;37974;53.218;6.640;2024-02-15T06:48:24;11.30;99.90
51950;DHT22;37974;53.218;6.640;2024-02-15T06:50:51;11.50;99.90
51950;DHT22;37974;53.218;6.640;2024-02-15T06:53:17;11.40;99.90
51950;DHT22;37974;53.218;6.640;2024-02-15T06:55:46;11.40;99.90
51950;DHT22;37974;53.218;6.640;2024-02-15T06:58:15;11.40;99.90
51950;DHT22;37974;53.218;6.640;2024-02-15T07:00:42;11.30;99.90
51950;DHT22;37974;53.218;6.640;2024-02-15T07:03:08;11.30;99.90
51950;DHT22;37974;53.218;6.640;2024-02-15T07:05:34;11.40;99.90
51950;DHT22;37974;53.218;6.640;2024-02-15T07:08:01;11.20;99.90
51950;DHT22;37974;53.218;6.640;2024-02-15T07:10:26;11.40;99.90
51950;DHT22;37974;53.218;6.640;2024-02-15T07:12:52;11.40;99.90
51950;DHT22;37974;53.218;6.640;2024-02-15T07:15:18;11.40;99.90
51950;DHT22;37974;53.218;6.640;2024-02-15T07:17:43;11.40;99.90
51950;DHT22;37974;53.218;6.640;2024-02-15T07:20:11;11.30;99.90
51950;DHT22;37974;53.218;6.640;2024-02-15T07:22:39;11.30;99.90
51950;DHT22;37974;53.218;6.640;2024-02-15T07:25:05;11.30;99.90
51950;DHT22;37974;53.218;6.640;2024-02-15T07:27:31;11.40;99.90
51950;DHT22;37974;53.218;6.640;2024-02-15T07:30:00;11.30;99.90
51950;DHT22;37974;53.218;6.640;2024-02-15T07:32:26;11.20;99.90
51950;DHT22;37974;53.218;6.640;2024-02-15T07:34:52;11.50;99.90
51950;DHT22;37974;53.218;6.640;2024-02-15T07:37:18;11.40;99.90
51950;DHT22;37974;53.218;6.640;2024-02-15T07:39:43;11.30;99.90
51950;DHT22;37974;53.218;6.640;2024-02-15T07:42:09;11.30;99.90
51950;DHT22;37974;53.218;6.640;2024-02-15T07:44:35;11.40;99.90
51950;DHT22;37974;53.218;6.640;2024-02-15T07:47:02;11.30;99.90
51950;DHT22;37974;53.218;6.640;2024-02-15T07:49:30;11.50;99.90
51950;DHT22;37974;53.218;6.640;2024-02-15T07:51:56;11.30;99.90
51950;DHT22;37974;53.218;6.640;2024-02-15T07:54:24;11.50;99.90
51950;DHT22;37974;53.218;6.640;2024-02-15T07:56:50;11.50;99.90
51950;DHT22;37974;53.218;6.640;2024-02-15T07:59:15;11.50;99.90
51950;DHT22;37974;53.218;6.640;2024-02-15T08:01:43;11.50;99.90
51950;DHT22;37974;53.218;6.640;2024-02-15T08:04:09;11.50;99.90
51950;DHT22;37974;53.218;6.640;2024-02-15T08:06:35;11.30;99.90
51950;DHT22;37974;53.218;6.640;2024-02-15T08:09:02;11.30;99.90
51950;DHT22;37974;53.218;6.640;2024-02-15T08:11:31;11.30;99.90
51950;DHT22;37974;53.218;6.640;2024-02-15T08:13:57;11.50;99.90
51950;DHT22;37974;53.218;6.640;2024-02-15T08:16:25;11.50;99.90
51950;DHT22;37974;53.218;6.640;2024-02-15T08:18:54;11.30;99.90
51950;DHT22;37974;53.218;6.640;2024-02-15T08:21:28;11.50;99.90
51950;DHT22;37974;53.218;6.640;2024-02-15T08:23:55;11.50;99.90
51950;DHT22;37974;53.218;6.640;2024-02-15T08:26:21;11.50;99.90
51950;DHT22;37974;53.218;6.640;2024-02-15T08:28:47;11.30;99.90
51950;DHT22;37974;53.218;6.640;2024-02-15T08:31:13;11.30;99.90
51950;DHT22;37974;53.218;6.640;2024-02-15T08:33:41;11.30;99.90
51950;DHT22;37974;53.218;6.640;2024-02-15T08:36:08;11.30;99.90
51950;DHT22;37974;53.218;6.640;2024-02-15T08:38:36;11.40;99.90
51950;DHT22;37974;53.218;6.640;2024-02-15T08:41:03;11.50;99.90
51950;DHT22;37974;53.218;6.640;2024-02-15T08:43:30;11.50;99.90
51950;DHT22;37974;53.218;6.640;2024-02-15T08:45:58;11.40;99.90
51950;DHT22;37974;53.218;6.640;2024-02-15T08:48:24;11.60;99.90
51950;DHT22;37974;53.218;6.640;2024-02-15T08:50:51;11.40;99.90
51950;DHT22;37974;53.218;6.640;2024-02-15T08:53:17;11.50;99.90
51950;DHT22;37974;53.218;6.640;2024-02-15T08:55:45;11.60;99.90
51950;DHT22;37974;53.218;6.640;2024-02-15T08:58:11;11.40;99.90
51950;DHT22;37974;53.218;6.640;2024-02-15T09:00:37;11.60;99.90
51950;DHT22;37974;53.218;6.640;2024-02-15T09:03:10;11.40;99.90
51950;DHT22;37974;53.218;6.640;2024-02-15T09:05:36;11.40;99.90
51950;DHT22;37974;53.218;6.640;2024-02-15T09:08:01;11.40;99.90
51950;DHT22;37974;53.218;6.640;2024-02-15T09:10:30;11.60;99.90
51950;DHT22;37974;53.218;6.640;2024-02-15T09:12:55;11.60;99.90
51950;DHT22;37974;53.218;6.640;2024-02-15T09:15:22;11.50;99.90
51950;DHT22;37974;53.218;6.640;2024-02-15T09:17:48;11.70;99.90
51950;DHT22;37974;53.218;6.640;2024-02-15T09:20:16;11.70;99.90
51950;DHT22;37974;53.218;6.640;2024-02-15T09:25:14;11.60;99.90
51950;DHT22;37974;53.218;6.640;2024-02-15T09:27:41;11.70;99.90
51950;DHT22;37974;53.218;6.640;2024-02-15T09:30:07;11.70;99.90
51950;DHT22;37974;53.218;6.640;2024-02-15T09:32:36;11.60;99.90
51950;DHT22;37974;53.218;6.640;2024-02-15T09:35:02;11.60;99.90
51950;DHT22;37974;53.218;6.640;2024-02-15T09:37:28;11.70;99.90
51950;DHT22;37974;53.218;6.640;2024-02-15T09:39:54;11.60;99.90
51950;DHT22;37974;53.218;6.640;2024-02-15T09:42:21;11.70;99.90
51950;DHT22;37974;53.218;6.640;2024-02-15T09:44:47;11.80;99.90
51950;DHT22;37974;53.218;6.640;2024-02-15T09:47:12;11.70;99.90
51950;DHT22;37974;53.218;6.640;2024-02-15T09:49:41;11.90;99.90
51950;DHT22;37974;53.218;6.640;2024-02-15T09:52:08;12.00;99.90
51950;DHT22;37974;53.218;6.640;2024-02-15T09:54:43;11.80;99.90
51950;DHT22;37974;53.218;6.640;2024-02-15T09:57:10;12.00;99.90
51950;DHT22;37974;53.218;6.640;2024-02-15T09:59:37;12.00;99.90
51950;DHT22;37974;53.218;6.640;2024-02-15T10:02:03;11.90;99.90
51950;DHT22;37974;53.218;6.640;2024-02-15T10:04:29;12.10;99.90
51950;DHT22;37974;53.218;6.640;2024-02-15T10:06:55;11.90;99.90
51950;DHT22;37974;53.218;6.640;2024-02-15T10:09:27;12.00;99.90
51950;DHT22;37974;53.218;6.640;2024-02-15T10:11:58;12.20;99.90
51950;DHT22;37974;53.218;6.640;2024-02-15T10:14:25;12.00;99.90
51950;DHT22;37974;53.218;6.640;2024-02-15T10:16:52;12.20;99.90
51950;DHT22;37974;53.218;6.640;2024-02-15T10:19:19;12.10;99.90
51950;DHT22;37974;53.218;6.640;2024-02-15T10:21:51;12.10;99.90
51950;DHT22;37974;53.218;6.640;2024-02-15T10:24:18;12.20;99.90
51950;DHT22;37974;53.218;6.640;2024-02-15T10:26:46;12.20;99.90
51950;DHT22;37974;53.218;6.640;2024-02-15T10:29:13;12.20;99.90
51950;DHT22;37974;53.218;6.640;2024-02-15T10:31:53;12.20;99.90
51950;DHT22;37974;53.218;6.640;2024-02-15T10:34:20;12.40;99.90
51950;DHT22;37974;53.218;6.640;2024-02-15T10:36:46;12.40;99.90
51950;DHT22;37974;53.218;6.640;2024-02-15T10:39:14;12.50;99.90
51950;DHT22;37974;53.218;6.640;2024-02-15T10:41:46;12.40;99.90
51950;DHT22;37974;53.218;6.640;2024-02-15T10:44:17;12.40;99.90
51950;DHT22;37974;53.218;6.640;2024-02-15T10:46:46;12.50;99.90
51950;DHT22;37974;53.218;6.640;2024-02-15T10:49:20;12.70;99.90
51950;DHT22;37974;53.218;6.640;2024-02-15T10:51:51;12.50;99.90
51950;DHT22;37974;53.218;6.640;2024-02-15T10:57:04;12.50;99.90
51950;DHT22;37974;53.218;6.640;2024-02-15T10:59:32;12.50;99.90
51950;DHT22;37974;53.218;6.640;2024-02-15T11:02:01;12.60;99.90
51950;DHT22;37974;53.218;6.640;2024-02-15T11:04:31;12.50;99.90
51950;DHT22;37974;53.218;6.640;2024-02-15T11:07:01;12.40;99.90
51950;DHT22;37974;53.218;6.640;2024-02-15T11:09:29;12.60;99.90
51950;DHT22;37974;53.218;6.640;2024-02-15T11:11:56;12.40;99.90
51950;DHT22;37974;53.218;6.640;2024-02-15T11:14:29;12.40;99.90
51950;DHT22;37974;53.218;6.640;2024-02-15T11:16:56;12.30;99.90
51950;DHT22;37974;53.218;6.640;2024-02-15T11:21:59;12.30;99.90
51950;DHT22;37974;53.218;6.640;2024-02-15T11:24:30;12.40;99.90
51950;DHT22;37974;53.218;6.640;2024-02-15T11:26:59;12.40;99.90
51950;DHT22;37974;53.218;6.640;2024-02-15T11:32:37;12.40;99.90
51950;DHT22;37974;53.218;6.640;2024-02-15T11:35:07;12.50;99.90
51950;DHT22;37974;53.218;6.640;2024-02-15T11:40:15;12.40;99.90
51950;DHT22;37974;53.218;6.640;2024-02-15T11:42:43;12.50;99.90
51950;DHT22;37974;53.218;6.640;2024-02-15T11:45:09;12.40;99.90
51950;DHT22;37974;53.218;6.640;2024-02-15T11:47:37;12.30;99.90
51950;DHT22;37974;53.218;6.640;2024-02-15T11:50:08;12.60;99.90
51950;DHT22;37974;53.218;6.640;2024-02-15T11:52:38;12.50;99.90
51950;DHT22;37974;53.218;6.640;2024-02-15T11:55:06;12.50;99.90
51950;DHT22;37974;53.218;6.640;2024-02-15T11:57:37;12.60;99.90
51950;DHT22;37974;53.218;6.640;2024-02-15T12:00:23;12.50;99.90
51950;DHT22;37974;53.218;6.640;2024-02-15T12:03:08;12.40;99.90
51950;DHT22;37974;53.218;6.640;2024-02-15T12:05:52;12.40;99.90
51950;DHT22;37974;53.218;6.640;2024-02-15T12:08:38;12.40;99.90
51950;DHT22;37974;53.218;6.640;2024-02-15T12:11:22;12.50;99.90
51950;DHT22;37974;53.218;6.640;2024-02-15T12:14:06;12.60;99.90
51950;DHT22;37974;53.218;6.640;2024-02-15T12:17:02;12.60;99.90
51950;DHT22;37974;53.218;6.640;2024-02-15T12:19:47;12.60;99.90
51950;DHT22;37974;53.218;6.640;2024-02-15T12:22:18;12.60;99.90
51950;DHT22;37974;53.218;6.640;2024-02-15T12:24:53;12.60;99.90
51950;DHT22;37974;53.218;6.640;2024-02-15T12:27:19;12.60;99.90
51950;DHT22;37974;53.218;6.640;2024-02-15T12:29:52;12.60;99.90
51950;DHT22;37974;53.218;6.640;2024-02-15T12:32:22;12.80;99.90
51950;DHT22;37974;53.218;6.640;2024-02-15T12:34:49;12.60;99.90
51950;DHT22;37974;53.218;6.640;2024-02-15T12:37:18;12.80;99.90
51950;DHT22;37974;53.218;6.640;2024-02-15T12:39:43;12.80;99.90
51950;DHT22;37974;53.218;6.640;2024-02-15T12:42:09;12.80;99.90
51950;DHT22;37974;53.218;6.640;2024-02-15T12:44:35;12.70;99.90
51950;DHT22;37974;53.218;6.640;2024-02-15T12:47:01;12.70;99.90
51950;DHT22;37974;53.218;6.640;2024-02-15T12:49:29;12.70;99.90
51950;DHT22;37974;53.218;6.640;2024-02-15T12:52:32;12.80;99.90
51950;DHT22;37974;53.218;6.640;2024-02-15T12:55:07;12.80;99.90
51950;DHT22;37974;53.218;6.640;2024-02-15T12:57:34;12.70;99.90
51950;DHT22;37974;53.218;6.640;2024-02-15T13:00:01;12.60;99.90
51950;DHT22;37974;53.218;6.640;2024-02-15T13:02:37;12.70;99.90
51950;DHT22;37974;53.218;6.640;2024-02-15T13:05:04;12.50;99.90
51950;DHT22;37974;53.218;6.640;2024-02-15T13:07:30;12.70;99.90
51950;DHT22;37974;53.218;6.640;2024-02-15T13:09:56;12.50;99.90
51950;DHT22;37974;53.218;6.640;2024-02-15T13:12:22;12.60;99.90
51950;DHT22;37974;53.218;6.640;2024-02-15T13:14:49;12.70;99.90
51950;DHT22;37974;53.218;6.640;2024-02-15T13:17:15;12.70;99.90
51950;DHT22;37974;53.218;6.640;2024-02-15T13:19:46;12.60;99.90
51950;DHT22;37974;53.218;6.640;2024-02-15T13:22:15;12.70;99.90
51950;DHT22;37974;53.218;6.640;2024-02-15T13:24:42;12.70;99.90
51950;DHT22;37974;53.218;6.640;2024-02-15T13:27:08;12.70;99.90
51950;DHT22;37974;53.218;6.640;2024-02-15T13:29:38;12.90;99.90
51950;DHT22;37974;53.218;6.640;2024-02-15T13:32:07;12.90;99.90
51950;DHT22;37974;53.218;6.640;2024-02-15T13:34:32;12.90;99.90
51950;DHT22;37974;53.218;6.640;2024-02-15T13:36:59;12.60;99.90
51950;DHT22;37974;53.218;6.640;2024-02-15T13:39:28;12.70;99.90
51950;DHT22;37974;53.218;6.640;2024-02-15T13:42:00;12.70;99.90
51950;DHT22;37974;53.218;6.640;2024-02-15T13:44:25;12.70;99.90
51950;DHT22;37974;53.218;6.640;2024-02-15T13:46:51;12.60;99.90
51950;DHT22;37974;53.218;6.640;2024-02-15T13:49:21;12.70;99.90
51950;DHT22;37974;53.218;6.640;2024-02-15T13:51:47;12.50;99.90
51950;DHT22;37974;53.218;6.640;2024-02-15T13:54:13;12.50;99.90
51950;DHT22;37974;53.218;6.640;2024-02-15T13:56:39;12.50;99.90
51950;DHT22;37974;53.218;6.640;2024-02-15T13:59:06;12.50;99.90
51950;DHT22;37974;53.218;6.640;2024-02-15T14:01:31;12.40;99.90
51950;DHT22;37974;53.218;6.640;2024-02-15T14:03:57;12.50;99.90
51950;DHT22;37974;53.218;6.640;2024-02-15T14:06:23;12.40;99.90
51950;DHT22;37974;53.218;6.640;2024-02-15T14:08:49;12.60;99.90
51950;DHT22;37974;53.218;6.640;2024-02-15T14:11:16;12.40;99.90
51950;DHT22;37974;53.218;6.640;2024-02-15T14:13:43;12.40;99.90
51950;DHT22;37974;53.218;6.640;2024-02-15T14:16:09;12.40;99.90
51950;DHT22;37974;53.218;6.640;2024-02-15T14:18:35;12.40;99.90
51950;DHT22;37974;53.218;6.640;2024-02-15T14:21:01;12.40;99.90
51950;DHT22;37974;53.218;6.640;2024-02-15T14:23:28;12.40;99.90
51950;DHT22;37974;53.218;6.640;2024-02-15T14:25:53;12.50;99.90
51950;DHT22;37974;53.218;6.640;2024-02-15T14:28:25;12.40;99.90
51950;DHT22;37974;53.218;6.640;2024-02-15T14:30:51;12.50;99.90
51950;DHT22;37974;53.218;6.640;2024-02-15T14:33:35;12.40;99.90
51950;DHT22;37974;53.218;6.640;2024-02-15T14:36:01;12.40;99.90
51950;DHT22;37974;53.218;6.640;2024-02-15T14:38:27;12.60;99.90
51950;DHT22;37974;53.218;6.640;2024-02-15T14:40:52;12.60;99.90
51950;DHT22;37974;53.218;6.640;2024-02-15T14:43:21;12.40;99.90
51950;DHT22;37974;53.218;6.640;2024-02-15T14:45:47;12.40;99.90
51950;DHT22;37974;53.218;6.640;2024-02-15T14:48:13;12.60;99.90
51950;DHT22;37974;53.218;6.640;2024-02-15T14:50:40;12.40;99.90
51950;DHT22;37974;53.218;6.640;2024-02-15T14:53:06;12.50;99.90
51950;DHT22;37974;53.218;6.640;2024-02-15T14:55:38;12.50;99.90
51950;DHT22;37974;53.218;6.640;2024-02-15T14:58:05;12.40;99.90
51950;DHT22;37974;53.218;6.640;2024-02-15T15:00:34;12.40;99.90
51950;DHT22;37974;53.218;6.640;2024-02-15T15:02:59;12.50;99.90
51950;DHT22;37974;53.218;6.640;2024-02-15T15:05:25;12.60;99.90
51950;DHT22;37974;53.218;6.640;2024-02-15T15:08:09;12.50;99.90
51950;DHT22;37974;53.218;6.640;2024-02-15T15:10:54;12.50;99.90
51950;DHT22;37974;53.218;6.640;2024-02-15T15:13:39;12.60;99.90
51950;DHT22;37974;53.218;6.640;2024-02-15T15:16:06;12.40;99.90
51950;DHT22;37974;53.218;6.640;2024-02-15T15:18:33;12.40;99.90
51950;DHT22;37974;53.218;6.640;2024-02-15T15:20:59;12.40;99.90
51950;DHT22;37974;53.218;6.640;2024-02-15T15:23:27;12.60;99.90
51950;DHT22;37974;53.218;6.640;2024-02-15T15:25:57;12.60;99.90
51950;DHT22;37974;53.218;6.640;2024-02-15T15:28:22;12.50;99.90
51950;DHT22;37974;53.218;6.640;2024-02-15T15:30:49;12.60;99.90
51950;DHT22;37974;53.218;6.640;2024-02-15T15:33:17;12.60;99.90
51950;DHT22;37974;53.218;6.640;2024-02-15T15:35:43;12.60;99.90
51950;DHT22;37974;53.218;6.640;2024-02-15T15:38:10;12.70;99.90
51950;DHT22;37974;53.218;6.640;2024-02-15T15:40:36;12.70;99.90
51950;DHT22;37974;53.218;6.640;2024-02-15T15:43:02;12.50;99.90
51950;DHT22;37974;53.218;6.640;2024-02-15T15:45:29;12.70;99.90
51950;DHT22;37974;53.218;6.640;2024-02-15T15:47:55;12.50;99.90
51950;DHT22;37974;53.218;6.640;2024-02-15T15:50:21;12.70;99.90
51950;DHT22;37974;53.218;6.640;2024-02-15T15:52:47;12.60;99.90